Time;durP1;ratioP1;P1;durP2;ratioP2;P2;SDS_P1;SDS_P2;PMS_P1;PMS_P2;Temp;Humidity;BMP_temperature;BMP_pressure;BME280_temperature;BME280_humidity;BME280_pressure;Samples;Min_cycle;Max_cycle;Signal;HPM_P1;HPM_P2
2022/05/09 00:01:17;;;;;;;11.52;3.95;;;;;;;11.40;56.78;102692.88;5022130;28;20033;-69
2022/05/09 00:03:44;;;;;;;11.18;3.67;;;;;;;11.32;57.28;102687.38;5020170;28;20048;-68
2022/05/09 00:06:09;;;;;;;9.07;3.63;;;;;;;11.33;57.30;102691.72;5019694;28;20029;-69
2022/05/09 00:08:35;;;;;;;10.48;3.90;;;;;;;11.35;57.50;102688.94;5021064;28;20044;-69
2022/05/09 00:11:00;;;;;;;13.75;4.32;;;;;;;11.29;57.44;102689.44;5022078;28;20032;-68
2022/05/09 00:13:25;;;;;;;11.25;3.55;;;;;;;11.24;57.42;102675.66;5019363;28;20082;-69
2022/05/09 00:15:50;;;;;;;14.88;3.83;;;;;;;11.13;57.83;102685.41;5020665;28;20408;-68
2022/05/09 00:18:17;;;;;;;17.20;4.30;;;;;;;11.09;57.87;102683.97;5019803;28;20495;-68
2022/05/09 00:20:42;;;;;;;16.30;4.13;;;;;;;11.08;57.85;102676.13;5016783;28;20033;-68
2022/05/09 00:23:07;;;;;;;13.82;4.28;;;;;;;10.97;58.15;102678.84;5023733;28;20029;-69
2022/05/09 00:25:33;;;;;;;14.82;4.20;;;;;;;11.03;58.02;102681.00;5022420;28;20022;-68
2022/05/09 00:27:58;;;;;;;14.30;3.75;;;;;;;10.99;58.02;102683.09;5025161;28;20039;-69
2022/05/09 00:30:23;;;;;;;12.07;4.68;;;;;;;10.97;57.96;102685.00;5025408;28;20144;-68
2022/05/09 00:32:49;;;;;;;13.18;4.43;;;;;;;10.88;57.91;102679.59;5025865;28;20034;-69
2022/05/09 00:35:15;;;;;;;11.13;3.90;;;;;;;10.84;58.36;102673.72;5024587;28;20029;-69
2022/05/09 00:37:41;;;;;;;12.65;4.15;;;;;;;10.81;58.56;102677.47;5025150;28;20024;-69
2022/05/09 00:40:12;;;;;;;11.38;4.10;;;;;;;10.85;58.61;102684.22;5024730;28;20041;-69
2022/05/09 00:42:43;;;;;;;16.45;4.07;;;;;;;10.89;58.58;102681.28;5022418;28;20078;-69
2022/05/09 00:45:09;;;;;;;16.08;4.03;;;;;;;10.83;58.62;102666.72;5023302;28;20569;-68
2022/05/09 00:47:34;;;;;;;14.73;4.40;;;;;;;10.70;58.97;102661.56;5023773;28;20101;-69
2022/05/09 00:50:04;;;;;;;16.25;4.35;;;;;;;10.64;58.80;102675.34;5026152;28;20045;-68
2022/05/09 00:52:39;;;;;;;11.35;4.00;;;;;;;10.71;59.25;102670.41;5025915;28;20057;-69
2022/05/09 00:55:09;;;;;;;12.43;3.83;;;;;;;10.71;59.19;102673.06;5023856;28;20048;-68
2022/05/09 00:57:38;;;;;;;;;;;;;;;10.88;58.92;102671.63;5023514;28;20103;-69
2022/05/09 01:00:12;;;;;;;11.75;4.18;;;;;;;10.68;59.42;102668.81;5025097;28;19913;-68
2022/05/09 01:02:42;;;;;;;15.07;4.35;;;;;;;10.45;59.48;102667.22;5024052;28;20126;-68
2022/05/09 01:05:08;;;;;;;11.15;4.43;;;;;;;10.36;59.79;102667.94;5024491;28;20042;-68
2022/05/09 01:07:33;;;;;;;13.77;4.00;;;;;;;10.33;60.00;102657.56;5023359;28;20509;-68
2022/05/09 01:09:59;;;;;;;13.18;3.90;;;;;;;10.33;60.08;102646.94;5024644;28;20033;-69
2022/05/09 01:12:29;;;;;;;13.05;3.90;;;;;;;10.40;60.59;102661.41;5023331;28;20037;-68
2022/05/09 01:14:59;;;;;;;11.43;3.80;;;;;;;10.35;60.52;102658.28;5024202;28;20040;-69
2022/05/09 01:17:24;;;;;;;11.73;4.20;;;;;;;10.32;60.59;102654.06;5019279;28;20037;-69
2022/05/09 01:19:52;;;;;;;15.45;4.18;;;;;;;10.28;60.66;102649.97;5024100;28;20025;-69
2022/05/09 01:22:38;;;;;;;15.52;3.92;;;;;;;10.24;60.89;102662.66;5024545;28;20037;-68
2022/05/09 01:25:07;;;;;;;17.83;4.75;;;;;;;10.27;61.03;102656.25;5021086;28;20060;-68
2022/05/09 01:27:35;;;;;;;13.93;4.23;;;;;;;10.30;61.21;102655.16;5021868;28;20036;-69
2022/05/09 01:30:08;;;;;;;10.18;4.22;;;;;;;10.25;61.34;102650.22;5022141;28;20287;-69
2022/05/09 01:32:38;;;;;;;14.80;4.25;;;;;;;10.16;61.64;102649.13;5026345;28;20029;-68
2022/05/09 01:35:24;;;;;;;14.30;4.30;;;;;;;10.25;61.72;102650.22;5026027;28;20628;-69
2022/05/09 01:38:04;;;;;;;17.42;4.70;;;;;;;10.14;61.58;102643.09;5027883;28;20040;-69
2022/05/09 01:40:29;;;;;;;14.45;4.20;;;;;;;10.14;61.77;102645.75;5023702;28;20067;-69
2022/05/09 01:42:55;;;;;;;15.73;4.57;;;;;;;10.14;61.71;102643.09;5026089;28;20033;-69
2022/05/09 01:45:20;;;;;;;14.43;4.80;;;;;;;10.14;61.73;102635.16;5024076;28;20498;-69
2022/05/09 01:50:29;;;;;;;14.60;4.25;;;;;;;10.05;62.01;102641.16;5018102;28;20053;-69
2022/05/09 01:52:55;;;;;;;17.70;4.50;;;;;;;10.07;61.97;102636.56;5027518;28;20037;-69
2022/05/09 01:55:21;;;;;;;16.42;4.38;;;;;;;10.01;62.33;102638.88;5028408;28;20075;-68
2022/05/09 01:57:49;;;;;;;12.80;4.38;;;;;;;9.96;62.20;102638.41;5026896;28;20037;-68
2022/05/09 02:00:15;;;;;;;12.82;4.60;;;;;;;9.94;62.69;102642.03;5027274;28;20033;-68
2022/05/09 02:02:40;;;;;;;13.50;4.53;;;;;;;9.90;62.94;102639.75;5026548;28;20041;-68
2022/05/09 02:05:06;;;;;;;16.77;4.45;;;;;;;9.83;62.94;102638.53;5025644;28;20482;-68
2022/05/09 02:07:31;;;;;;;12.60;3.97;;;;;;;9.87;63.26;102640.00;5027855;28;20386;-68
2022/05/09 02:09:56;;;;;;;18.85;4.65;;;;;;;9.80;63.35;102644.09;5027226;28;20079;-68
2022/05/09 02:12:22;;;;;;;16.70;4.63;;;;;;;9.81;63.75;102638.66;5026548;28;20118;-68
2022/05/09 02:14:48;;;;;;;20.60;5.57;;;;;;;9.78;63.64;102641.56;5026999;28;20037;-68
2022/05/09 02:17:14;;;;;;;14.50;4.32;;;;;;;9.81;63.89;102646.63;5027533;28;20056;-68
2022/05/09 02:19:41;;;;;;;15.52;5.30;;;;;;;9.80;63.73;102646.75;5026911;28;20586;-68
2022/05/09 02:22:08;;;;;;;15.95;4.45;;;;;;;9.79;63.52;102647.72;5027977;28;20044;-68
2022/05/09 02:24:35;;;;;;;18.42;4.40;;;;;;;9.76;63.85;102645.28;5027879;28;20132;-69
2022/05/09 02:27:01;;;;;;;16.33;4.22;;;;;;;9.66;63.84;102628.44;5028039;28;20029;-68
2022/05/09 02:29:27;;;;;;;12.30;4.25;;;;;;;9.66;63.86;102633.72;5026847;28;20048;-68
2022/05/09 02:31:54;;;;;;;14.73;4.45;;;;;;;9.63;63.70;102633.00;5024637;28;20498;-68
2022/05/09 02:34:20;;;;;;;14.85;4.82;;;;;;;9.62;64.32;102628.66;5027090;28;20033;-68
2022/05/09 02:36:45;;;;;;;13.18;4.22;;;;;;;9.50;63.92;102623.47;5027230;28;20040;-69
2022/05/09 02:39:10;;;;;;;15.30;4.50;;;;;;;9.40;64.05;102603.94;5027656;28;20033;-68
2022/05/09 02:41:36;;;;;;;12.27;3.97;;;;;;;9.58;64.40;102632.53;5024969;28;20714;-68
2022/05/09 02:44:01;;;;;;;14.50;4.57;;;;;;;9.48;64.18;102634.19;5020536;28;20033;-68
2022/05/09 02:46:27;;;;;;;17.63;4.60;;;;;;;9.52;64.43;102629.50;5026458;28;20018;-69
2022/05/09 02:48:53;;;;;;;12.20;4.90;;;;;;;9.40;64.28;102638.41;5026899;28;20025;-68
2022/05/09 02:51:19;;;;;;;15.32;4.43;;;;;;;9.24;64.29;102625.47;5026649;28;20087;-68
2022/05/09 02:53:44;;;;;;;16.83;4.80;;;;;;;9.30;64.53;102635.63;5027159;28;20148;-68
2022/05/09 02:56:10;;;;;;;20.08;5.03;;;;;;;9.21;64.75;102639.81;5025024;28;20059;-68
2022/05/09 02:58:36;;;;;;;25.58;4.97;;;;;;;9.13;65.08;102633.41;5013731;28;20022;-68
2022/05/09 03:01:03;;;;;;;28.08;5.53;;;;;;;8.96;65.16;102622.31;5019886;28;20499;-68
2022/05/09 03:06:11;;;;;;;18.60;4.50;;;;;;;8.85;65.31;102624.91;5025196;28;20066;-68
2022/05/09 03:08:37;;;;;;;14.48;4.72;;;;;;;8.77;65.64;102611.41;5026518;28;20033;-69
2022/05/09 03:11:02;;;;;;;13.95;4.63;;;;;;;8.80;65.63;102616.47;5027389;28;20609;-68
2022/05/09 03:13:27;;;;;;;16.00;4.63;;;;;;;8.72;66.19;102624.16;5026408;28;20033;-68
2022/05/09 03:15:53;;;;;;;16.67;4.90;;;;;;;8.74;66.22;102624.03;5026910;28;20167;-69
2022/05/09 03:18:22;;;;;;;13.88;5.13;;;;;;;8.67;66.55;102620.97;5025085;28;20038;-68
2022/05/09 03:20:48;;;;;;;13.50;4.90;;;;;;;8.59;66.40;102615.41;5026876;28;20045;-68
2022/05/09 03:23:13;;;;;;;13.60;4.60;;;;;;;8.50;66.32;102609.00;5025921;28;20030;-68
2022/05/09 03:25:40;;;;;;;19.88;5.10;;;;;;;8.41;66.56;102614.16;5019173;28;20700;-68
2022/05/09 03:28:09;;;;;;;10.52;4.78;;;;;;;8.37;66.63;102606.41;5021621;28;20474;-68
2022/05/09 03:30:36;;;;;;;11.70;5.00;;;;;;;8.28;66.91;102608.88;5022035;28;20029;-68
2022/05/09 03:33:01;;;;;;;12.45;4.70;;;;;;;8.27;66.96;102609.81;5026298;28;20082;-68
2022/05/09 03:35:26;;;;;;;15.20;4.55;;;;;;;8.17;67.12;102608.81;5022061;28;20021;-68
2022/05/09 03:37:53;;;;;;;12.27;4.50;;;;;;;8.12;67.49;102603.00;5024159;28;20108;-68
2022/05/09 03:40:20;;;;;;;14.15;4.68;;;;;;;8.01;67.47;102609.06;5020961;28;20028;-68
2022/05/09 03:42:46;;;;;;;12.38;4.72;;;;;;;7.98;67.63;102606.63;5024150;28;20033;-69
2022/05/09 03:45:12;;;;;;;21.05;5.00;;;;;;;7.87;67.99;102601.28;5025075;28;20026;-68
2022/05/09 03:47:37;;;;;;;13.77;4.82;;;;;;;7.86;68.39;102603.09;5027146;28;20630;-68
2022/05/09 03:50:03;;;;;;;14.95;4.85;;;;;;;7.83;68.59;102605.09;5021326;28;20036;-68
2022/05/09 03:52:28;;;;;;;10.30;4.38;;;;;;;7.76;68.70;102602.88;5027187;28;20104;-69
2022/05/09 03:54:55;;;;;;;11.77;4.90;;;;;;;7.75;68.84;102598.53;5024966;28;20041;-68
2022/05/09 03:57:21;;;;;;;13.98;4.85;;;;;;;7.79;68.95;102601.81;5026545;28;20118;-68
2022/05/09 03:59:46;;;;;;;16.75;5.00;;;;;;;7.81;69.20;102604.38;5031185;28;20097;-68
2022/05/09 04:02:11;;;;;;;14.77;5.35;;;;;;;7.82;69.43;102598.13;5030435;28;20031;-68
2022/05/09 04:04:37;;;;;;;14.25;5.30;;;;;;;7.84;69.45;102601.50;5028110;28;20703;-67
2022/05/09 04:07:02;;;;;;;16.85;5.18;;;;;;;7.87;69.60;102611.88;5029737;28;20051;-68
2022/05/09 04:09:27;;;;;;;15.68;5.30;;;;;;;7.84;69.57;102610.28;5031136;28;20063;-67
2022/05/09 04:11:53;;;;;;;17.10;5.70;;;;;;;7.84;69.86;102607.66;5029363;28;20558;-68
2022/05/09 04:16:49;;;;;;;21.00;5.35;;;;;;;7.86;70.03;102607.53;5028802;28;20021;-67
2022/05/09 04:17:03;;;;;;;14.80;5.25;;;;;;;7.96;70.03;102600.63;5029783;28;20112;-67
2022/05/09 04:19:29;;;;;;;16.48;5.70;;;;;;;8.05;70.29;102602.59;5030065;28;20100;-67
2022/05/09 04:21:57;;;;;;;14.60;5.43;;;;;;;8.01;70.15;102601.97;5030158;28;20072;-67
2022/05/09 04:24:22;;;;;;;11.55;4.82;;;;;;;8.17;70.27;102595.59;5028324;28;20033;-67
2022/05/09 04:26:47;;;;;;;14.05;4.93;;;;;;;8.20;70.14;102598.84;5029825;28;20041;-68
2022/05/09 04:29:13;;;;;;;16.98;5.05;;;;;;;8.20;70.06;102587.41;5025228;28;20037;-68
2022/05/09 04:31:38;;;;;;;12.75;5.25;;;;;;;8.20;69.93;102593.56;5029422;28;20029;-68
2022/05/09 04:34:03;;;;;;;13.70;4.82;;;;;;;8.27;69.85;102600.06;5029351;28;20403;-67
2022/05/09 04:36:29;;;;;;;13.68;5.15;;;;;;;8.34;69.79;102589.91;5028817;28;20100;-68
2022/05/09 04:38:55;;;;;;;16.98;5.38;;;;;;;8.35;69.91;102581.84;5029973;28;20033;-67
2022/05/09 04:41:22;;;;;;;14.50;5.47;;;;;;;8.38;70.04;102597.53;5029751;28;20033;-68
2022/05/09 04:43:48;;;;;;;21.45;5.47;;;;;;;8.20;70.04;102577.69;5028267;28;20537;-67
2022/05/09 04:46:14;;;;;;;9.32;4.50;;;;;;;8.19;69.47;102591.03;5029121;28;20029;-67
2022/05/09 04:48:41;;;;;;;9.27;3.50;;;;;;;8.05;69.43;102595.50;5030303;28;20036;-67
2022/05/09 04:51:07;;;;;;;12.35;3.80;;;;;;;8.01;69.94;102595.84;5029481;28;20588;-67
2022/05/09 04:53:33;;;;;;;18.23;4.00;;;;;;;7.90;70.23;102590.47;5027861;28;20116;-67
2022/05/09 04:55:59;;;;;;;30.08;4.68;;;;;;;7.97;70.50;102589.06;5029414;28;20067;-67
2022/05/09 04:58:25;;;;;;;19.48;5.63;;;;;;;8.15;71.25;102589.56;5029757;28;20120;-67
2022/05/09 05:00:51;;;;;;;16.02;6.10;;;;;;;8.29;71.61;102582.28;5026687;28;20029;-67
2022/05/09 05:03:16;;;;;;;18.17;6.05;;;;;;;8.47;71.67;102584.56;5026386;28;20034;-67
2022/05/09 05:05:42;;;;;;;18.33;6.05;;;;;;;8.66;71.60;102588.34;5028502;28;20056;-68
2022/05/09 05:08:08;;;;;;;14.73;5.93;;;;;;;8.79;71.80;102585.66;5028783;28;20025;-67
2022/05/09 05:10:34;;;;;;;19.00;5.70;;;;;;;8.88;71.52;102579.63;5028529;28;20033;-68
2022/05/09 05:13:02;;;;;;;16.73;6.05;;;;;;;8.96;71.17;102579.03;5028764;28;20133;-67
2022/05/09 05:15:29;;;;;;;25.80;6.50;;;;;;;9.03;71.46;102579.44;5023209;28;20022;-67
2022/05/09 05:17:55;;;;;;;18.38;5.93;;;;;;;9.11;70.99;102574.38;5029655;28;20483;-67
2022/05/09 05:20:21;;;;;;;22.55;6.57;;;;;;;9.22;70.86;102585.00;5024830;28;20785;-67
2022/05/09 05:22:47;;;;;;;18.77;6.13;;;;;;;9.43;71.11;102585.97;5029872;28;20481;-68
2022/05/09 05:25:15;;;;;;;13.98;6.25;;;;;;;9.50;70.94;102579.22;5028534;28;20025;-67
2022/05/09 05:27:40;;;;;;;19.52;6.45;;;;;;;9.54;70.67;102580.69;5022652;28;20510;-67
2022/05/09 05:30:08;;;;;;;13.68;6.45;;;;;;;9.65;70.71;102594.91;5028158;28;20091;-68
2022/05/09 05:32:36;;;;;;;16.95;6.43;;;;;;;9.72;70.61;102580.19;5028556;28;20112;-67
2022/05/09 05:35:04;;;;;;;18.63;6.68;;;;;;;9.80;70.07;102583.06;5023826;28;20116;-67
2022/05/09 05:37:30;;;;;;;18.63;6.43;;;;;;;9.89;69.46;102587.66;5028894;28;20050;-68
2022/05/09 05:39:57;;;;;;;20.38;6.30;;;;;;;9.94;69.42;102580.16;5027047;28;20072;-68
2022/05/09 05:42:23;;;;;;;19.65;6.53;;;;;;;10.05;69.05;102592.53;5028741;28;20124;-67
2022/05/09 05:44:48;;;;;;;19.00;7.05;;;;;;;10.15;69.06;102589.03;5027994;28;20577;-67
2022/05/09 05:47:17;;;;;;;19.20;7.03;;;;;;;10.19;69.11;102586.97;5029085;28;20486;-67
2022/05/09 05:49:42;;;;;;;18.90;6.78;;;;;;;10.26;68.92;102587.34;5027508;28;20030;-67
2022/05/09 05:52:09;;;;;;;15.23;5.97;;;;;;;10.32;68.57;102584.19;5025641;28;20052;-67
2022/05/09 05:54:39;;;;;;;17.10;6.35;;;;;;;10.40;68.30;102581.72;5024657;28;20037;-67
2022/05/09 05:57:05;;;;;;;18.17;6.32;;;;;;;10.48;68.10;102587.28;5023422;28;20117;-67
2022/05/09 05:59:30;;;;;;;21.17;6.55;;;;;;;10.56;68.02;102590.13;5021260;28;20080;-67
2022/05/09 06:01:56;;;;;;;18.33;6.50;;;;;;;10.69;67.57;102589.94;5020507;28;20037;-67
2022/05/09 06:04:22;;;;;;;19.75;6.38;;;;;;;10.75;67.68;102590.28;5021211;28;20037;-68
2022/05/09 06:06:48;;;;;;;17.85;6.72;;;;;;;10.81;67.28;102589.75;5023786;28;20479;-67
2022/05/09 06:09:13;;;;;;;14.35;6.13;;;;;;;10.85;66.96;102579.72;5020987;28;20032;-68
2022/05/09 06:11:40;;;;;;;26.58;7.05;;;;;;;10.91;66.78;102586.31;5023904;28;20029;-68
2022/05/09 06:14:07;;;;;;;17.17;5.93;;;;;;;10.92;66.35;102580.88;5020430;28;20429;-68
2022/05/09 06:16:32;;;;;;;22.58;7.22;;;;;;;10.96;65.69;102584.94;5022004;28;20029;-68
2022/05/09 06:18:59;;;;;;;24.90;7.20;;;;;;;10.94;65.68;102588.72;5023012;28;20080;-67
2022/05/09 06:21:24;;;;;;;17.67;7.05;;;;;;;11.05;65.64;102586.84;5021914;28;20617;-67
2022/05/09 06:23:50;;;;;;;20.48;7.05;;;;;;;11.12;65.49;102585.34;5022557;28;20033;-68
2022/05/09 06:26:15;;;;;;;18.58;6.78;;;;;;;11.20;65.64;102584.69;5021339;28;20513;-68
2022/05/09 06:28:41;;;;;;;19.10;6.72;;;;;;;11.24;65.19;102578.13;5024508;28;20503;-68
2022/05/09 06:31:07;;;;;;;20.65;7.30;;;;;;;11.31;64.87;102581.13;5022255;28;20107;-68
2022/05/09 06:33:32;;;;;;;20.15;7.22;;;;;;;11.38;64.67;102584.91;5022840;28;20044;-68
2022/05/09 06:35:59;;;;;;;23.30;7.03;;;;;;;11.42;64.53;102581.00;5021444;28;20025;-68
2022/05/09 06:38:27;;;;;;;25.25;7.45;;;;;;;11.53;64.42;102583.56;5023292;28;20035;-68
2022/05/09 06:40:55;;;;;;;24.55;7.35;;;;;;;11.66;64.43;102580.69;5019828;28;20044;-68
2022/05/09 06:43:24;;;;;;;25.57;8.03;;;;;;;11.78;64.18;102579.63;5016861;28;20076;-68
2022/05/09 06:45:50;;;;;;;17.67;7.18;;;;;;;11.88;64.35;102577.00;5022191;28;20314;-68
2022/05/09 06:48:16;;;;;;;19.20;7.38;;;;;;;11.99;63.73;102577.72;5022063;28;20037;-68
2022/05/09 06:50:41;;;;;;;23.15;7.03;;;;;;;12.08;63.72;102576.91;5016643;28;20052;-68
2022/05/09 06:53:08;;;;;;;22.35;7.35;;;;;;;12.23;63.56;102582.69;5013120;28;20021;-68
2022/05/09 06:55:33;;;;;;;23.80;7.13;;;;;;;12.34;63.71;102579.88;5017140;28;20052;-68
2022/05/09 06:57:58;;;;;;;17.33;6.57;;;;;;;12.38;62.69;102577.75;5017170;28;20068;-68
2022/05/09 07:00:25;;;;;;;19.85;7.18;;;;;;;12.42;62.56;102581.81;5020346;28;20558;-68
2022/05/09 07:02:51;;;;;;;21.75;7.40;;;;;;;12.53;62.39;102583.53;5018674;28;20044;-69
2022/05/09 07:05:19;;;;;;;21.50;7.00;;;;;;;12.57;62.52;102564.44;5022476;28;20021;-69
2022/05/09 07:07:45;;;;;;;17.45;7.13;;;;;;;12.69;62.17;102571.28;5027817;28;20028;-68
2022/05/09 07:10:12;;;;;;;22.95;7.38;;;;;;;12.77;62.01;102575.94;5027105;28;20083;-68
2022/05/09 07:12:45;;;;;;;22.85;7.20;;;;;;;12.94;61.54;102572.53;5024300;28;20017;-68
2022/05/09 07:15:12;;;;;;;20.08;6.93;;;;;;;13.00;60.75;102563.94;5026311;28;20026;-68
2022/05/09 07:17:38;;;;;;;17.88;7.20;;;;;;;13.10;60.77;102563.94;5027497;28;20013;-68
2022/05/09 07:20:04;;;;;;;18.33;6.80;;;;;;;13.15;60.35;102559.00;5025845;28;20032;-68
2022/05/09 07:22:29;;;;;;;19.88;7.07;;;;;;;13.20;60.08;102566.59;5025667;28;20041;-68
2022/05/09 07:24:54;;;;;;;19.33;7.40;;;;;;;13.26;59.93;102563.34;5023898;28;20372;-68
2022/05/09 07:27:20;;;;;;;22.35;7.53;;;;;;;13.33;59.67;102567.13;5026775;28;20025;-68
2022/05/09 07:29:45;;;;;;;22.15;7.45;;;;;;;13.48;59.78;102575.47;5027946;28;20053;-68
2022/05/09 07:32:10;;;;;;;17.02;7.18;;;;;;;13.57;59.11;102572.75;5025768;28;20434;-68
2022/05/09 07:34:35;;;;;;;20.25;6.60;;;;;;;13.64;59.44;102579.22;5023447;28;20056;-68
2022/05/09 07:37:01;;;;;;;17.77;6.70;;;;;;;13.72;58.74;102565.13;5026404;28;20032;-68
2022/05/09 07:39:26;;;;;;;22.55;7.70;;;;;;;13.79;58.75;102566.19;5020449;28;20546;-68
2022/05/09 07:41:51;;;;;;;19.90;7.57;;;;;;;13.84;58.21;102565.72;5025723;28;20030;-68
2022/05/09 07:44:16;;;;;;;18.58;7.10;;;;;;;13.83;57.77;102564.91;5025842;28;20033;-68
2022/05/09 07:46:42;;;;;;;20.98;7.32;;;;;;;13.83;57.43;102569.41;5026082;28;20071;-68
2022/05/09 07:49:07;;;;;;;19.35;7.80;;;;;;;13.93;57.80;102573.72;5026378;28;20035;-68
2022/05/09 07:51:37;;;;;;;19.20;7.43;;;;;;;14.02;57.51;102573.78;5026929;28;20033;-68
2022/05/09 07:54:02;;;;;;;27.00;7.95;;;;;;;14.11;57.54;102575.53;5020124;28;20550;-68
2022/05/09 07:56:27;;;;;;;22.50;7.65;;;;;;;14.15;57.14;102576.91;5020748;28;20104;-68
2022/05/09 07:58:52;;;;;;;20.00;7.35;;;;;;;14.24;56.78;102570.69;5025779;28;20403;-69
2022/05/09 08:01:18;;;;;;;18.90;7.80;;;;;;;14.32;56.70;102562.75;5026997;28;20025;-68
2022/05/09 08:03:43;;;;;;;19.35;8.50;;;;;;;14.47;56.87;102571.94;5025525;28;20029;-69
2022/05/09 08:06:08;;;;;;;22.23;8.35;;;;;;;14.51;56.38;102567.97;5027017;28;20394;-68
2022/05/09 08:08:36;;;;;;;27.50;8.27;;;;;;;14.63;56.68;102570.38;5026577;28;20368;-68
2022/05/09 08:11:03;;;;;;;18.67;8.10;;;;;;;14.70;56.54;102571.44;5023378;28;20055;-68
2022/05/09 08:13:32;;;;;;;18.05;9.07;;;;;;;14.75;55.89;102575.34;5023841;28;20082;-68
2022/05/09 08:15:59;;;;;;;20.75;9.30;;;;;;;14.77;55.45;102573.38;5026820;28;20030;-68
2022/05/09 08:18:25;;;;;;;24.50;10.25;;;;;;;14.90;55.45;102572.94;5022225;28;20061;-68
2022/05/09 08:20:53;;;;;;;21.25;10.50;;;;;;;15.02;55.73;102565.47;5022678;28;20499;-68
2022/05/09 08:23:18;;;;;;;27.08;12.02;;;;;;;15.16;56.05;102567.59;5019073;28;20094;-68
2022/05/09 08:25:48;;;;;;;26.85;11.20;;;;;;;15.30;55.44;102575.00;5025730;28;20025;-68
2022/05/09 08:28:15;;;;;;;23.00;9.60;;;;;;;15.35;55.23;102570.03;5026473;28;20013;-68
2022/05/09 08:30:41;;;;;;;18.33;9.07;;;;;;;15.50;55.33;102573.78;5025089;28;20025;-68
2022/05/09 08:33:15;;;;;;;22.08;9.23;;;;;;;15.63;55.32;102570.72;5025885;28;20045;-68
2022/05/09 08:35:41;;;;;;;19.83;9.50;;;;;;;15.78;54.55;102561.03;5025836;28;20155;-68
2022/05/09 08:38:06;;;;;;;24.45;10.55;;;;;;;15.80;54.32;102560.88;5026114;28;20029;-68
2022/05/09 08:40:35;;;;;;;24.08;9.45;;;;;;;15.93;54.09;102571.97;5023195;28;20648;-68
2022/05/09 08:43:27;;;;;;;17.27;7.35;;;;;;;16.08;53.35;102569.50;5025376;28;20029;-68
2022/05/09 08:46:19;;;;;;;22.98;8.38;;;;;;;16.25;52.81;102570.38;5024373;28;20021;-68
2022/05/09 08:49:02;;;;;;;17.42;7.80;;;;;;;16.42;52.35;102566.69;5029087;28;20029;-68
2022/05/09 08:51:42;;;;;;;21.48;10.35;;;;;;;16.51;51.81;102565.69;5029547;28;20052;-68
2022/05/09 08:54:12;;;;;;;21.55;8.02;;;;;;;16.70;51.63;102569.91;5029223;28;20438;-68
2022/05/09 08:56:47;;;;;;;25.08;8.30;;;;;;;16.88;51.16;102559.84;5029255;28;20028;-68
2022/05/09 08:59:18;;;;;;;17.25;6.72;;;;;;;17.02;50.33;102560.97;5029158;28;20552;-68
2022/05/09 09:01:54;;;;;;;17.65;7.32;;;;;;;17.19;49.83;102569.84;5027574;28;20048;-68
2022/05/09 09:04:29;;;;;;;19.13;6.32;;;;;;;17.27;49.51;102554.53;5027990;28;20108;-68
2022/05/09 09:07:19;;;;;;;17.92;5.90;;;;;;;17.39;48.50;102551.50;5029689;28;20690;-68
2022/05/09 09:10:24;;;;;;;13.13;5.43;;;;;;;17.59;47.85;102556.25;5029593;28;20477;-68
2022/05/09 09:13:23;;;;;;;14.23;5.55;;;;;;;17.78;47.49;102546.13;5027947;28;20033;-69
2022/05/09 09:16:12;;;;;;;16.83;5.38;;;;;;;17.95;47.50;102553.94;5028878;28;20033;-68
2022/05/09 09:19:12;;;;;;;14.23;5.80;;;;;;;17.99;46.00;102554.41;5026383;28;20490;-68
2022/05/09 09:21:43;;;;;;;20.33;5.93;;;;;;;18.11;45.64;102552.13;5026467;28;20032;-69
2022/05/09 09:24:44;;;;;;;15.82;6.75;;;;;;;18.33;45.57;102550.47;5028620;28;20060;-68
2022/05/09 09:27:31;;;;;;;13.15;6.20;;;;;;;18.57;45.61;102545.72;5027915;28;20025;-68
2022/05/09 09:29:59;;;;;;;14.80;5.95;;;;;;;18.77;45.21;102540.69;5015480;28;20025;-69
2022/05/09 09:32:24;;;;;;;16.00;6.45;;;;;;;19.09;44.92;102538.69;5028639;28;20407;-68
2022/05/09 09:34:57;;;;;;;16.17;6.25;;;;;;;19.25;43.90;102533.09;5026700;28;20025;-69
2022/05/09 09:37:32;;;;;;;17.35;6.40;;;;;;;19.51;43.26;102538.00;5028889;28;20025;-68
2022/05/09 09:39:58;;;;;;;15.48;6.60;;;;;;;19.66;42.99;102524.53;5027606;28;20029;-68
2022/05/09 09:42:23;;;;;;;11.57;5.30;;;;;;;19.74;42.87;102522.56;5029736;28;20104;-68
2022/05/09 09:44:49;;;;;;;11.50;5.10;;;;;;;19.83;41.66;102528.66;5021944;28;20108;-68
2022/05/09 09:47:20;;;;;;;14.10;5.07;;;;;;;19.95;41.39;102529.00;5029280;28;20014;-68
2022/05/09 09:50:11;;;;;;;12.18;4.97;;;;;;;20.18;41.72;102526.97;5028343;28;20108;-69
2022/05/09 09:52:47;;;;;;;13.68;5.72;;;;;;;20.19;41.59;102530.50;5023736;28;20077;-69
2022/05/09 09:55:37;;;;;;;11.65;5.38;;;;;;;20.10;41.24;102521.69;5021584;28;20539;-68
2022/05/09 09:58:27;;;;;;;12.60;5.15;;;;;;;20.11;40.35;102526.91;5023285;28;20488;-69
2022/05/09 10:01:19;;;;;;;13.10;5.45;;;;;;;20.21;40.37;102518.47;5022499;28;20052;-68
2022/05/09 10:03:48;;;;;;;14.60;5.95;;;;;;;20.37;40.49;102520.91;5027479;28;20514;-68
2022/05/09 10:06:15;;;;;;;;;;;;;;;20.42;39.60;102509.56;5025400;28;20029;-69
2022/05/09 10:08:41;;;;;;;12.82;5.78;;;;;;;20.17;39.58;102506.41;5030852;28;20399;-69
2022/05/09 10:11:12;;;;;;;15.57;5.95;;;;;;;20.21;40.07;102502.28;5025573;28;20056;-69
2022/05/09 10:13:47;;;;;;;17.10;5.35;;;;;;;20.30;40.51;102505.72;5020700;28;20407;-69
2022/05/09 10:16:24;;;;;;;13.27;5.75;;;;;;;20.45;40.31;102505.63;5020271;28;20100;-68
2022/05/09 10:18:52;;;;;;;14.43;5.70;;;;;;;20.65;39.85;102499.38;5028106;28;20028;-68
2022/05/09 10:27:08;;;;;;;15.68;5.20;;;;;;;21.04;38.67;102490.69;5021936;28;20027;-69
2022/05/09 10:29:38;;;;;;;12.73;5.65;;;;;;;21.28;37.72;102481.25;5023388;28;20053;-69
2022/05/09 10:32:09;;;;;;;13.43;6.28;;;;;;;21.04;36.94;102484.44;5026523;28;20021;-69
2022/05/09 10:34:55;;;;;;;14.98;5.75;;;;;;;21.37;37.72;102486.50;5026664;28;20041;-69
2022/05/09 10:37:40;;;;;;;12.73;5.60;;;;;;;21.60;37.73;102487.00;5028231;28;20025;-69
2022/05/09 10:40:11;;;;;;;13.77;5.47;;;;;;;21.63;37.62;102484.72;5027804;28;20028;-69
2022/05/09 10:42:44;;;;;;;13.52;5.95;;;;;;;21.61;36.81;102483.25;5028348;28;20030;-69
2022/05/09 10:45:24;;;;;;;11.85;6.05;;;;;;;21.38;36.44;102488.16;5026858;28;20017;-69
2022/05/09 10:48:06;;;;;;;12.68;6.03;;;;;;;21.12;36.60;102478.88;5026187;28;20526;-69
2022/05/09 10:50:50;;;;;;;16.73;6.15;;;;;;;21.70;38.02;102484.75;5027845;28;20440;-68
2022/05/09 10:53:39;;;;;;;11.60;5.53;;;;;;;22.15;38.88;102479.63;5023070;28;20029;-70
2022/05/09 10:56:11;;;;;;;16.50;6.15;;;;;;;22.59;37.87;102470.06;5024083;28;20031;-70
2022/05/09 10:59:24;;;;;;;13.25;5.43;;;;;;;22.81;36.69;102466.06;5021032;28;20033;-70
2022/05/09 11:02:00;;;;;;;16.58;5.68;;;;;;;23.10;36.38;102464.72;5002532;28;20071;-69
2022/05/09 11:04:26;;;;;;;12.45;6.10;;;;;;;23.09;35.39;102458.47;5018998;28;20441;-69
2022/05/09 11:07:04;;;;;;;11.93;5.47;;;;;;;23.13;34.92;102457.03;5017505;28;20045;-69
2022/05/09 11:09:55;;;;;;;16.20;6.25;;;;;;;23.15;35.49;102456.81;5017446;28;20030;-68
2022/05/09 11:12:36;;;;;;;10.82;5.93;;;;;;;23.04;34.80;102452.84;5025640;28;20052;-69
2022/05/09 11:15:18;;;;;;;13.10;6.00;;;;;;;22.77;34.11;102443.13;5015932;28;20029;-69
2022/05/09 11:18:14;;;;;;;13.70;6.05;;;;;;;22.67;34.49;102442.75;5022352;28;20057;-69
2022/05/09 11:20:48;;;;;;;12.98;5.90;;;;;;;22.44;33.98;102440.47;5023909;28;20022;-68
2022/05/09 11:23:59;;;;;;;13.77;5.82;;;;;;;22.50;34.39;102435.06;5015432;28;20563;-69
2022/05/09 11:26:44;;;;;;;15.15;5.97;;;;;;;22.36;34.08;102424.47;4995113;28;20048;-69
2022/05/09 11:29:41;;;;;;;14.80;5.50;;;;;;;22.42;34.75;102432.56;5022566;28;20450;-69
2022/05/09 11:32:25;;;;;;;14.15;5.05;;;;;;;22.70;35.10;102429.59;5023971;28;20052;-69
2022/05/09 11:35:11;;;;;;;17.77;5.00;;;;;;;22.99;34.99;102432.88;5019565;28;20083;-69
2022/05/09 11:38:19;;;;;;;17.30;5.72;;;;;;;22.80;33.78;102413.72;5020878;28;20036;-69
2022/05/09 11:41:12;;;;;;;10.57;5.45;;;;;;;23.05;34.55;102422.00;5022515;28;20063;-68
2022/05/09 11:43:59;;;;;;;11.38;5.35;;;;;;;23.26;34.48;102430.88;5023676;28;20032;-69